Pagrindinis puslapis
METAR-TAF:

METAR-TAF

Oro uostai :

Arvidsjaur, Švedija

platuma: 65-35-25N, ilguma: 019-16-55E, Aukštis: 379 m

Dabartinis oras

Ataskaita buvo paskelbta 13 minutes, ne 02:20 UTC
Vėjas 8 kt iš Vakarų/Šiaurės Vakarų
Temperatūra 9°C
Drėgmė 93%
Slėgis 1018 hPa
Matomumas 10 km arba daugiau

METAR: ESNX 240220Z AUTO 29008KT 9999 NCD 09/08 Q1018

Laikas: 04:33 (02:33 UTC)

Prognozė

Ataskaita buvo paskelbta 9 valandos ir 3 minutes, ne 17:30 UTC
Prognozė galioja nuo 23 metu 18 UTC su 23 metu 20 UTC
Vėjas 4 kt iš Šiaurės/Šiaurės Vakarų
Matomumas 10 km arba daugiau
Su prošvaistėmis ne aukštis 4000 ft
Tikimybė 40%
nuo 23 metu 18 UTC su 23 metu 19 UTC
Matomumas: 4000 m
Su prošvaistėmis ne aukštis 400 ft
lietus

TAF: ESNX 231730Z 2318/2320 34004KT 9999 BKN040 PROB40 2318/2319 4000 RA BKN004

Orai ataskaitas ir orų prognozės (METAR, TAF).

turimą stotys yra geltonos ir raudonos taškus žemėlapyje.

Perkelti pele per norėdami pamatyti stoties vardą.

Tada spustelėkite, norėdami matyti oro stebėjimo ir prognozės.

Norėdami pakeisti žemėlapį: spustelėkite ant žalios mygtukų su juodo kryžiaus žemyn,; žalią mygtuką su brūkšneliu, jei norite nutolinti; arba žalių rodyklių gretimoms žemėlapius.


METAR-TAF: